sensor_id;sensor_type;location;lat;lon;timestamp;pressure;altitude;pressure_sealevel;temperature
16956;BMP180;8594;52.052;8.354;2023-12-20T00:00:37;100256.00;;;11.10
16956;BMP180;8594;52.052;8.354;2023-12-20T00:03:04;100259.00;;;11.10
16956;BMP180;8594;52.052;8.354;2023-12-20T00:05:31;100265.00;;;10.70
16956;BMP180;8594;52.052;8.354;2023-12-20T00:07:59;100272.00;;;11.00
16956;BMP180;8594;52.052;8.354;2023-12-20T00:10:25;100270.00;;;11.10
16956;BMP180;8594;52.052;8.354;2023-12-20T00:12:52;100279.00;;;11.10
16956;BMP180;8594;52.052;8.354;2023-12-20T00:15:20;100279.00;;;10.80
16956;BMP180;8594;52.052;8.354;2023-12-20T00:17:47;100278.00;;;11.00
16956;BMP180;8594;52.052;8.354;2023-12-20T00:20:14;100272.00;;;11.00
16956;BMP180;8594;52.052;8.354;2023-12-20T00:22:40;100283.00;;;10.90
16956;BMP180;8594;52.052;8.354;2023-12-20T00:25:07;100279.00;;;10.80
16956;BMP180;8594;52.052;8.354;2023-12-20T00:27:34;100281.00;;;10.40
16956;BMP180;8594;52.052;8.354;2023-12-20T00:30:01;100291.00;;;10.70
16956;BMP180;8594;52.052;8.354;2023-12-20T00:32:30;100289.00;;;10.80
16956;BMP180;8594;52.052;8.354;2023-12-20T00:34:57;100284.00;;;10.70
16956;BMP180;8594;52.052;8.354;2023-12-20T00:37:23;100282.00;;;10.70
16956;BMP180;8594;52.052;8.354;2023-12-20T00:39:50;100279.00;;;10.80
16956;BMP180;8594;52.052;8.354;2023-12-20T00:42:17;100284.00;;;10.80
16956;BMP180;8594;52.052;8.354;2023-12-20T00:44:43;100274.00;;;10.50
16956;BMP180;8594;52.052;8.354;2023-12-20T00:47:10;100277.00;;;10.50
16956;BMP180;8594;52.052;8.354;2023-12-20T00:49:38;100277.00;;;10.40
16956;BMP180;8594;52.052;8.354;2023-12-20T00:52:05;100279.00;;;10.50
16956;BMP180;8594;52.052;8.354;2023-12-20T00:54:32;100280.00;;;10.60
16956;BMP180;8594;52.052;8.354;2023-12-20T00:56:59;100286.00;;;10.90
16956;BMP180;8594;52.052;8.354;2023-12-20T00:59:26;100284.00;;;10.80
16956;BMP180;8594;52.052;8.354;2023-12-20T01:01:53;100281.00;;;10.60
16956;BMP180;8594;52.052;8.354;2023-12-20T01:04:19;100284.00;;;10.80
16956;BMP180;8594;52.052;8.354;2023-12-20T01:06:48;100287.00;;;10.40
16956;BMP180;8594;52.052;8.354;2023-12-20T01:09:14;100286.00;;;10.40
16956;BMP180;8594;52.052;8.354;2023-12-20T01:11:41;100288.00;;;10.20
16956;BMP180;8594;52.052;8.354;2023-12-20T01:14:08;100286.00;;;10.30
16956;BMP180;8594;52.052;8.354;2023-12-20T01:16:35;100292.00;;;10.60
16956;BMP180;8594;52.052;8.354;2023-12-20T01:19:01;100289.00;;;10.50
16956;BMP180;8594;52.052;8.354;2023-12-20T01:21:28;100289.00;;;10.50
16956;BMP180;8594;52.052;8.354;2023-12-20T01:23:56;100291.00;;;10.70
16956;BMP180;8594;52.052;8.354;2023-12-20T01:26:23;100300.00;;;10.80
16956;BMP180;8594;52.052;8.354;2023-12-20T01:28:49;100302.00;;;10.60
16956;BMP180;8594;52.052;8.354;2023-12-20T01:31:16;100301.00;;;10.40
16956;BMP180;8594;52.052;8.354;2023-12-20T01:33:43;100299.00;;;10.40
16956;BMP180;8594;52.052;8.354;2023-12-20T01:36:09;100298.00;;;10.50
16956;BMP180;8594;52.052;8.354;2023-12-20T01:38:36;100304.00;;;10.50
16956;BMP180;8594;52.052;8.354;2023-12-20T01:41:05;100309.00;;;10.60
16956;BMP180;8594;52.052;8.354;2023-12-20T01:43:31;100309.00;;;10.40
16956;BMP180;8594;52.052;8.354;2023-12-20T01:45:58;100308.00;;;10.40
16956;BMP180;8594;52.052;8.354;2023-12-20T01:48:27;100307.00;;;10.30
16956;BMP180;8594;52.052;8.354;2023-12-20T01:50:55;100307.00;;;10.60
16956;BMP180;8594;52.052;8.354;2023-12-20T01:53:25;100301.00;;;10.50
16956;BMP180;8594;52.052;8.354;2023-12-20T01:55:55;100302.00;;;10.20
16956;BMP180;8594;52.052;8.354;2023-12-20T01:58:25;100301.00;;;10.40
16956;BMP180;8594;52.052;8.354;2023-12-20T02:00:52;100305.00;;;10.60
16956;BMP180;8594;52.052;8.354;2023-12-20T02:03:20;100285.00;;;10.00
16956;BMP180;8594;52.052;8.354;2023-12-20T02:05:47;100286.00;;;10.10
16956;BMP180;8594;52.052;8.354;2023-12-20T02:08:14;100298.00;;;10.10
16956;BMP180;8594;52.052;8.354;2023-12-20T02:10:41;100291.00;;;10.10
16956;BMP180;8594;52.052;8.354;2023-12-20T02:13:08;100271.00;;;10.30
16956;BMP180;8594;52.052;8.354;2023-12-20T02:15:36;100273.00;;;10.60
16956;BMP180;8594;52.052;8.354;2023-12-20T02:18:04;100273.00;;;10.70
16956;BMP180;8594;52.052;8.354;2023-12-20T02:20:31;100267.00;;;10.50
16956;BMP180;8594;52.052;8.354;2023-12-20T02:22:59;100272.00;;;10.50
16956;BMP180;8594;52.052;8.354;2023-12-20T02:25:26;100266.00;;;10.40
16956;BMP180;8594;52.052;8.354;2023-12-20T02:27:52;100272.00;;;10.00
16956;BMP180;8594;52.052;8.354;2023-12-20T02:30:19;100267.00;;;10.10
16956;BMP180;8594;52.052;8.354;2023-12-20T02:32:46;100268.00;;;10.10
16956;BMP180;8594;52.052;8.354;2023-12-20T02:35:13;100278.00;;;10.10
16956;BMP180;8594;52.052;8.354;2023-12-20T02:37:40;100274.00;;;9.90
16956;BMP180;8594;52.052;8.354;2023-12-20T02:40:09;100271.00;;;9.60
16956;BMP180;8594;52.052;8.354;2023-12-20T02:42:36;100272.00;;;10.00
16956;BMP180;8594;52.052;8.354;2023-12-20T02:45:03;100268.00;;;10.10
16956;BMP180;8594;52.052;8.354;2023-12-20T02:47:30;100270.00;;;9.90
16956;BMP180;8594;52.052;8.354;2023-12-20T02:49:57;100273.00;;;9.80
16956;BMP180;8594;52.052;8.354;2023-12-20T02:52:24;100274.00;;;9.90
16956;BMP180;8594;52.052;8.354;2023-12-20T02:54:51;100269.00;;;10.10
16956;BMP180;8594;52.052;8.354;2023-12-20T02:57:19;100256.00;;;10.00
16956;BMP180;8594;52.052;8.354;2023-12-20T02:59:45;100269.00;;;9.70
16956;BMP180;8594;52.052;8.354;2023-12-20T03:02:12;100260.00;;;9.80
16956;BMP180;8594;52.052;8.354;2023-12-20T03:04:39;100266.00;;;9.70
16956;BMP180;8594;52.052;8.354;2023-12-20T03:07:06;100261.00;;;9.30
16956;BMP180;8594;52.052;8.354;2023-12-20T03:09:32;100264.00;;;9.60
16956;BMP180;8594;52.052;8.354;2023-12-20T03:11:59;100268.00;;;9.80
16956;BMP180;8594;52.052;8.354;2023-12-20T03:14:27;100266.00;;;9.80
16956;BMP180;8594;52.052;8.354;2023-12-20T03:16:54;100257.00;;;9.40
16956;BMP180;8594;52.052;8.354;2023-12-20T03:19:20;100260.00;;;9.60
16956;BMP180;8594;52.052;8.354;2023-12-20T03:21:47;100267.00;;;9.70
16956;BMP180;8594;52.052;8.354;2023-12-20T03:24:14;100258.00;;;9.10
16956;BMP180;8594;52.052;8.354;2023-12-20T03:26:40;100257.00;;;9.40
16956;BMP180;8594;52.052;8.354;2023-12-20T03:29:07;100262.00;;;9.40
16956;BMP180;8594;52.052;8.354;2023-12-20T03:31:35;100260.00;;;9.10
16956;BMP180;8594;52.052;8.354;2023-12-20T03:34:02;100255.00;;;9.10
16956;BMP180;8594;52.052;8.354;2023-12-20T03:36:28;100255.00;;;9.70
16956;BMP180;8594;52.052;8.354;2023-12-20T03:38:55;100260.00;;;9.60
16956;BMP180;8594;52.052;8.354;2023-12-20T03:41:22;100257.00;;;9.50
16956;BMP180;8594;52.052;8.354;2023-12-20T03:43:48;100253.00;;;9.50
16956;BMP180;8594;52.052;8.354;2023-12-20T03:46:15;100240.00;;;9.60
16956;BMP180;8594;52.052;8.354;2023-12-20T03:48:43;100240.00;;;9.30
16956;BMP180;8594;52.052;8.354;2023-12-20T03:51:10;100229.00;;;9.30
16956;BMP180;8594;52.052;8.354;2023-12-20T03:53:37;100238.00;;;9.40
16956;BMP180;8594;52.052;8.354;2023-12-20T03:56:05;100245.00;;;9.50
16956;BMP180;8594;52.052;8.354;2023-12-20T03:58:32;100242.00;;;9.40
16956;BMP180;8594;52.052;8.354;2023-12-20T04:00:59;100243.00;;;9.30
16956;BMP180;8594;52.052;8.354;2023-12-20T04:03:26;100247.00;;;9.30
16956;BMP180;8594;52.052;8.354;2023-12-20T04:05:54;100235.00;;;9.10
16956;BMP180;8594;52.052;8.354;2023-12-20T04:08:20;100231.00;;;8.70
16956;BMP180;8594;52.052;8.354;2023-12-20T04:10:47;100227.00;;;8.80
16956;BMP180;8594;52.052;8.354;2023-12-20T04:13:14;100229.00;;;9.00
16956;BMP180;8594;52.052;8.354;2023-12-20T04:15:40;100232.00;;;8.90
16956;BMP180;8594;52.052;8.354;2023-12-20T04:18:07;100226.00;;;9.10
16956;BMP180;8594;52.052;8.354;2023-12-20T04:20:34;100223.00;;;9.10
16956;BMP180;8594;52.052;8.354;2023-12-20T04:23:02;100232.00;;;9.20
16956;BMP180;8594;52.052;8.354;2023-12-20T04:25:29;100230.00;;;8.70
16956;BMP180;8594;52.052;8.354;2023-12-20T04:27:55;100232.00;;;9.20
16956;BMP180;8594;52.052;8.354;2023-12-20T04:30:22;100232.00;;;9.30
16956;BMP180;8594;52.052;8.354;2023-12-20T04:32:49;100230.00;;;9.50
16956;BMP180;8594;52.052;8.354;2023-12-20T04:35:16;100232.00;;;9.40
16956;BMP180;8594;52.052;8.354;2023-12-20T04:37:41;100229.00;;;8.60
16956;BMP180;8594;52.052;8.354;2023-12-20T04:40:10;100232.00;;;8.70
16956;BMP180;8594;52.052;8.354;2023-12-20T04:42:37;100230.00;;;9.00
16956;BMP180;8594;52.052;8.354;2023-12-20T04:45:05;100223.00;;;8.90
16956;BMP180;8594;52.052;8.354;2023-12-20T04:47:31;100219.00;;;9.10
16956;BMP180;8594;52.052;8.354;2023-12-20T04:49:58;100232.00;;;9.00
16956;BMP180;8594;52.052;8.354;2023-12-20T04:52:25;100230.00;;;9.00
16956;BMP180;8594;52.052;8.354;2023-12-20T04:54:52;100228.00;;;8.90
16956;BMP180;8594;52.052;8.354;2023-12-20T04:57:21;100221.00;;;9.10
16956;BMP180;8594;52.052;8.354;2023-12-20T04:59:47;100220.00;;;8.90
16956;BMP180;8594;52.052;8.354;2023-12-20T05:02:14;100223.00;;;9.00
16956;BMP180;8594;52.052;8.354;2023-12-20T05:04:41;100219.00;;;9.10
16956;BMP180;8594;52.052;8.354;2023-12-20T05:07:08;100223.00;;;9.00
16956;BMP180;8594;52.052;8.354;2023-12-20T05:09:34;100219.00;;;8.60
16956;BMP180;8594;52.052;8.354;2023-12-20T05:12:01;100220.00;;;8.80
16956;BMP180;8594;52.052;8.354;2023-12-20T05:14:29;100215.00;;;9.10
16956;BMP180;8594;52.052;8.354;2023-12-20T05:16:56;100226.00;;;9.10
16956;BMP180;8594;52.052;8.354;2023-12-20T05:19:23;100209.00;;;9.10
16956;BMP180;8594;52.052;8.354;2023-12-20T05:21:49;100206.00;;;8.80
16956;BMP180;8594;52.052;8.354;2023-12-20T05:24:16;100203.00;;;8.80
16956;BMP180;8594;52.052;8.354;2023-12-20T05:26:43;100202.00;;;9.20
16956;BMP180;8594;52.052;8.354;2023-12-20T05:29:10;100214.00;;;8.50
16956;BMP180;8594;52.052;8.354;2023-12-20T05:31:38;100210.00;;;8.40
16956;BMP180;8594;52.052;8.354;2023-12-20T05:34:04;100221.00;;;9.00
16956;BMP180;8594;52.052;8.354;2023-12-20T05:36:31;100212.00;;;9.10
16956;BMP180;8594;52.052;8.354;2023-12-20T05:38:58;100193.00;;;8.90
16956;BMP180;8594;52.052;8.354;2023-12-20T05:41:24;100216.00;;;9.00
16956;BMP180;8594;52.052;8.354;2023-12-20T05:43:51;100219.00;;;9.50
16956;BMP180;8594;52.052;8.354;2023-12-20T05:46:18;100218.00;;;8.80
16956;BMP180;8594;52.052;8.354;2023-12-20T05:48:46;100216.00;;;9.10
16956;BMP180;8594;52.052;8.354;2023-12-20T05:51:12;100229.00;;;9.20
16956;BMP180;8594;52.052;8.354;2023-12-20T05:53:39;100229.00;;;9.10
16956;BMP180;8594;52.052;8.354;2023-12-20T05:56:06;100216.00;;;9.30
16956;BMP180;8594;52.052;8.354;2023-12-20T05:58:33;100223.00;;;9.00
16956;BMP180;8594;52.052;8.354;2023-12-20T06:01:00;100225.00;;;9.10
16956;BMP180;8594;52.052;8.354;2023-12-20T06:03:26;100226.00;;;9.40
16956;BMP180;8594;52.052;8.354;2023-12-20T06:05:54;100218.00;;;9.30
16956;BMP180;8594;52.052;8.354;2023-12-20T06:08:21;100217.00;;;9.20
16956;BMP180;8594;52.052;8.354;2023-12-20T06:10:48;100222.00;;;9.10
16956;BMP180;8594;52.052;8.354;2023-12-20T06:13:15;100221.00;;;9.20
16956;BMP180;8594;52.052;8.354;2023-12-20T06:15:42;100224.00;;;9.40
16956;BMP180;8594;52.052;8.354;2023-12-20T06:18:09;100223.00;;;9.10
16956;BMP180;8594;52.052;8.354;2023-12-20T06:20:36;100220.00;;;9.00
16956;BMP180;8594;52.052;8.354;2023-12-20T06:23:04;100215.00;;;8.70
16956;BMP180;8594;52.052;8.354;2023-12-20T06:25:30;100219.00;;;8.90
16956;BMP180;8594;52.052;8.354;2023-12-20T06:27:57;100215.00;;;9.10
16956;BMP180;8594;52.052;8.354;2023-12-20T06:30:24;100226.00;;;9.00
16956;BMP180;8594;52.052;8.354;2023-12-20T06:32:53;100215.00;;;9.10
16956;BMP180;8594;52.052;8.354;2023-12-20T06:35:20;100219.00;;;9.10
16956;BMP180;8594;52.052;8.354;2023-12-20T06:37:47;100222.00;;;9.20
16956;BMP180;8594;52.052;8.354;2023-12-20T06:40:15;100220.00;;;9.50
16956;BMP180;8594;52.052;8.354;2023-12-20T06:42:44;100214.00;;;8.70
16956;BMP180;8594;52.052;8.354;2023-12-20T06:45:10;100210.00;;;9.30
16956;BMP180;8594;52.052;8.354;2023-12-20T06:47:38;100213.00;;;9.00
16956;BMP180;8594;52.052;8.354;2023-12-20T06:50:05;100209.00;;;9.00
16956;BMP180;8594;52.052;8.354;2023-12-20T06:52:33;100208.00;;;9.30
16956;BMP180;8594;52.052;8.354;2023-12-20T06:55:00;100211.00;;;9.20
16956;BMP180;8594;52.052;8.354;2023-12-20T06:57:29;100200.00;;;9.10
16956;BMP180;8594;52.052;8.354;2023-12-20T06:59:56;100211.00;;;9.20
16956;BMP180;8594;52.052;8.354;2023-12-20T07:02:23;100184.00;;;8.90
16956;BMP180;8594;52.052;8.354;2023-12-20T07:04:50;100192.00;;;9.20
16956;BMP180;8594;52.052;8.354;2023-12-20T07:07:16;100195.00;;;8.90
16956;BMP180;8594;52.052;8.354;2023-12-20T07:09:43;100205.00;;;8.70
16956;BMP180;8594;52.052;8.354;2023-12-20T07:12:10;100205.00;;;8.60
16956;BMP180;8594;52.052;8.354;2023-12-20T07:14:38;100207.00;;;9.10
16956;BMP180;8594;52.052;8.354;2023-12-20T07:17:04;100212.00;;;9.00
16956;BMP180;8594;52.052;8.354;2023-12-20T07:19:33;100216.00;;;9.20
16956;BMP180;8594;52.052;8.354;2023-12-20T07:22:00;100200.00;;;9.10
16956;BMP180;8594;52.052;8.354;2023-12-20T07:24:26;100210.00;;;9.10
16956;BMP180;8594;52.052;8.354;2023-12-20T07:26:53;100201.00;;;9.20
16956;BMP180;8594;52.052;8.354;2023-12-20T07:29:20;100202.00;;;9.40
16956;BMP180;8594;52.052;8.354;2023-12-20T07:31:48;100201.00;;;9.10
16956;BMP180;8594;52.052;8.354;2023-12-20T07:34:14;100207.00;;;9.20
16956;BMP180;8594;52.052;8.354;2023-12-20T07:36:41;100206.00;;;9.20
16956;BMP180;8594;52.052;8.354;2023-12-20T07:39:08;100201.00;;;9.30
16956;BMP180;8594;52.052;8.354;2023-12-20T07:41:35;100209.00;;;9.00
16956;BMP180;8594;52.052;8.354;2023-12-20T07:44:03;100207.00;;;9.20
16956;BMP180;8594;52.052;8.354;2023-12-20T07:46:30;100207.00;;;9.00
16956;BMP180;8594;52.052;8.354;2023-12-20T07:48:58;100204.00;;;9.00
16956;BMP180;8594;52.052;8.354;2023-12-20T07:51:25;100203.00;;;8.90
16956;BMP180;8594;52.052;8.354;2023-12-20T07:53:51;100212.00;;;9.10
16956;BMP180;8594;52.052;8.354;2023-12-20T07:56:20;100207.00;;;8.90
16956;BMP180;8594;52.052;8.354;2023-12-20T07:58:46;100204.00;;;8.80
16956;BMP180;8594;52.052;8.354;2023-12-20T08:01:16;100206.00;;;9.10
16956;BMP180;8594;52.052;8.354;2023-12-20T08:03:43;100206.00;;;9.30
16956;BMP180;8594;52.052;8.354;2023-12-20T08:06:12;100193.00;;;9.40
16956;BMP180;8594;52.052;8.354;2023-12-20T08:08:38;100199.00;;;9.10
16956;BMP180;8594;52.052;8.354;2023-12-20T08:11:05;100205.00;;;9.20
16956;BMP180;8594;52.052;8.354;2023-12-20T08:13:32;100192.00;;;9.20
16956;BMP180;8594;52.052;8.354;2023-12-20T08:15:58;100212.00;;;9.60
16956;BMP180;8594;52.052;8.354;2023-12-20T08:18:25;100205.00;;;9.20
16956;BMP180;8594;52.052;8.354;2023-12-20T08:20:52;100202.00;;;8.80
16956;BMP180;8594;52.052;8.354;2023-12-20T08:23:20;100197.00;;;9.30
16956;BMP180;8594;52.052;8.354;2023-12-20T08:25:47;100204.00;;;9.50
16956;BMP180;8594;52.052;8.354;2023-12-20T08:28:14;100202.00;;;9.60
16956;BMP180;8594;52.052;8.354;2023-12-20T08:30:41;100194.00;;;9.10
16956;BMP180;8594;52.052;8.354;2023-12-20T08:33:08;100205.00;;;9.30
16956;BMP180;8594;52.052;8.354;2023-12-20T08:35:38;100195.00;;;9.40
16956;BMP180;8594;52.052;8.354;2023-12-20T08:38:05;100194.00;;;9.20
16956;BMP180;8594;52.052;8.354;2023-12-20T08:40:33;100193.00;;;9.00
16956;BMP180;8594;52.052;8.354;2023-12-20T08:43:01;100177.00;;;8.80
16956;BMP180;8594;52.052;8.354;2023-12-20T08:45:27;100194.00;;;9.20
16956;BMP180;8594;52.052;8.354;2023-12-20T08:47:54;100188.00;;;9.40
16956;BMP180;8594;52.052;8.354;2023-12-20T08:50:21;100174.00;;;9.50
16956;BMP180;8594;52.052;8.354;2023-12-20T08:52:48;100175.00;;;9.50
16956;BMP180;8594;52.052;8.354;2023-12-20T08:55:14;100179.00;;;9.60
16956;BMP180;8594;52.052;8.354;2023-12-20T08:57:44;100177.00;;;9.40
16956;BMP180;8594;52.052;8.354;2023-12-20T09:00:13;100167.00;;;9.30
16956;BMP180;8594;52.052;8.354;2023-12-20T09:02:40;100178.00;;;9.30
16956;BMP180;8594;52.052;8.354;2023-12-20T09:05:07;100164.00;;;9.10
16956;BMP180;8594;52.052;8.354;2023-12-20T09:07:34;100170.00;;;9.40
16956;BMP180;8594;52.052;8.354;2023-12-20T09:10:01;100153.00;;;9.30
16956;BMP180;8594;52.052;8.354;2023-12-20T09:12:28;100151.00;;;9.30
16956;BMP180;8594;52.052;8.354;2023-12-20T09:14:56;100144.00;;;9.20
16956;BMP180;8594;52.052;8.354;2023-12-20T09:17:22;100151.00;;;9.60
16956;BMP180;8594;52.052;8.354;2023-12-20T09:19:49;100160.00;;;9.70
16956;BMP180;8594;52.052;8.354;2023-12-20T09:22:18;100146.00;;;9.70
16956;BMP180;8594;52.052;8.354;2023-12-20T09:24:44;100152.00;;;9.50
16956;BMP180;8594;52.052;8.354;2023-12-20T09:27:11;100147.00;;;9.30
16956;BMP180;8594;52.052;8.354;2023-12-20T09:29:38;100141.00;;;9.50
16956;BMP180;8594;52.052;8.354;2023-12-20T09:32:06;100145.00;;;9.60
16956;BMP180;8594;52.052;8.354;2023-12-20T09:34:33;100138.00;;;9.30
16956;BMP180;8594;52.052;8.354;2023-12-20T09:37:00;100139.00;;;9.20
16956;BMP180;8594;52.052;8.354;2023-12-20T09:39:28;100126.00;;;9.70
16956;BMP180;8594;52.052;8.354;2023-12-20T09:42:01;100129.00;;;9.40
16956;BMP180;8594;52.052;8.354;2023-12-20T09:44:30;100118.00;;;9.30
16956;BMP180;8594;52.052;8.354;2023-12-20T09:46:57;100123.00;;;9.20
16956;BMP180;8594;52.052;8.354;2023-12-20T09:49:28;100126.00;;;9.20
16956;BMP180;8594;52.052;8.354;2023-12-20T09:51:55;100127.00;;;9.20
16956;BMP180;8594;52.052;8.354;2023-12-20T09:54:23;100125.00;;;9.30
16956;BMP180;8594;52.052;8.354;2023-12-20T09:56:50;100136.00;;;9.30
16956;BMP180;8594;52.052;8.354;2023-12-20T09:59:17;100125.00;;;8.90
16956;BMP180;8594;52.052;8.354;2023-12-20T10:01:44;100134.00;;;9.20
16956;BMP180;8594;52.052;8.354;2023-12-20T10:04:13;100129.00;;;9.40
16956;BMP180;8594;52.052;8.354;2023-12-20T10:06:42;100136.00;;;9.30
16956;BMP180;8594;52.052;8.354;2023-12-20T10:09:10;100140.00;;;9.30
16956;BMP180;8594;52.052;8.354;2023-12-20T10:11:38;100148.00;;;9.50
16956;BMP180;8594;52.052;8.354;2023-12-20T10:14:06;100136.00;;;9.40
16956;BMP180;8594;52.052;8.354;2023-12-20T10:16:33;100133.00;;;9.40
16956;BMP180;8594;52.052;8.354;2023-12-20T10:19:01;100130.00;;;9.70
16956;BMP180;8594;52.052;8.354;2023-12-20T10:21:27;100133.00;;;9.60
16956;BMP180;8594;52.052;8.354;2023-12-20T10:23:57;100126.00;;;9.80
16956;BMP180;8594;52.052;8.354;2023-12-20T10:26:25;100125.00;;;10.00
16956;BMP180;8594;52.052;8.354;2023-12-20T10:28:54;100129.00;;;9.80
16956;BMP180;8594;52.052;8.354;2023-12-20T10:31:29;100125.00;;;9.40
16956;BMP180;8594;52.052;8.354;2023-12-20T10:33:57;100127.00;;;9.30
16956;BMP180;8594;52.052;8.354;2023-12-20T10:36:26;100125.00;;;9.30
16956;BMP180;8594;52.052;8.354;2023-12-20T10:38:55;100123.00;;;9.60
16956;BMP180;8594;52.052;8.354;2023-12-20T10:41:26;100131.00;;;9.50
16956;BMP180;8594;52.052;8.354;2023-12-20T10:43:58;100114.00;;;9.50
16956;BMP180;8594;52.052;8.354;2023-12-20T10:46:26;100127.00;;;9.40
16956;BMP180;8594;52.052;8.354;2023-12-20T10:48:54;100124.00;;;9.30
16956;BMP180;8594;52.052;8.354;2023-12-20T10:51:22;100122.00;;;9.70
16956;BMP180;8594;52.052;8.354;2023-12-20T10:53:51;100110.00;;;9.70
16956;BMP180;8594;52.052;8.354;2023-12-20T10:56:20;100111.00;;;9.80
16956;BMP180;8594;52.052;8.354;2023-12-20T10:58:50;100109.00;;;10.00
16956;BMP180;8594;52.052;8.354;2023-12-20T11:01:18;100110.00;;;9.50
16956;BMP180;8594;52.052;8.354;2023-12-20T11:03:49;100095.00;;;9.70
16956;BMP180;8594;52.052;8.354;2023-12-20T11:06:32;100097.00;;;9.70
16956;BMP180;8594;52.052;8.354;2023-12-20T11:09:10;100102.00;;;9.60
16956;BMP180;8594;52.052;8.354;2023-12-20T11:11:59;100114.00;;;9.90
16956;BMP180;8594;52.052;8.354;2023-12-20T11:14:34;100109.00;;;10.20
16956;BMP180;8594;52.052;8.354;2023-12-20T11:17:08;100115.00;;;10.00
16956;BMP180;8594;52.052;8.354;2023-12-20T11:19:38;100103.00;;;10.00
16956;BMP180;8594;52.052;8.354;2023-12-20T11:22:05;100092.00;;;9.30
16956;BMP180;8594;52.052;8.354;2023-12-20T11:24:33;100097.00;;;9.80
16956;BMP180;8594;52.052;8.354;2023-12-20T11:27:04;100090.00;;;9.60
16956;BMP180;8594;52.052;8.354;2023-12-20T11:29:33;100084.00;;;9.70
16956;BMP180;8594;52.052;8.354;2023-12-20T11:32:02;100080.00;;;9.80
16956;BMP180;8594;52.052;8.354;2023-12-20T11:34:33;100083.00;;;9.40
16956;BMP180;8594;52.052;8.354;2023-12-20T11:37:01;100081.00;;;10.20
16956;BMP180;8594;52.052;8.354;2023-12-20T11:39:28;100084.00;;;10.20
16956;BMP180;8594;52.052;8.354;2023-12-20T11:41:57;100090.00;;;10.10
16956;BMP180;8594;52.052;8.354;2023-12-20T11:44:30;100076.00;;;10.00
16956;BMP180;8594;52.052;8.354;2023-12-20T11:46:58;100079.00;;;10.00
16956;BMP180;8594;52.052;8.354;2023-12-20T11:49:25;100074.00;;;9.70
16956;BMP180;8594;52.052;8.354;2023-12-20T11:51:52;100062.00;;;9.80
16956;BMP180;8594;52.052;8.354;2023-12-20T11:54:18;100056.00;;;10.10
16956;BMP180;8594;52.052;8.354;2023-12-20T11:56:47;100044.00;;;9.60
16956;BMP180;8594;52.052;8.354;2023-12-20T11:59:14;100034.00;;;10.10
16956;BMP180;8594;52.052;8.354;2023-12-20T12:01:49;100058.00;;;9.90
16956;BMP180;8594;52.052;8.354;2023-12-20T12:04:16;100065.00;;;10.30
16956;BMP180;8594;52.052;8.354;2023-12-20T12:06:43;100062.00;;;10.10
16956;BMP180;8594;52.052;8.354;2023-12-20T12:09:10;100045.00;;;10.20
16956;BMP180;8594;52.052;8.354;2023-12-20T12:11:37;100047.00;;;10.20
16956;BMP180;8594;52.052;8.354;2023-12-20T12:14:04;100045.00;;;10.00
16956;BMP180;8594;52.052;8.354;2023-12-20T12:16:31;100055.00;;;9.70
16956;BMP180;8594;52.052;8.354;2023-12-20T12:18:59;100054.00;;;10.30
16956;BMP180;8594;52.052;8.354;2023-12-20T12:21:26;100045.00;;;10.40
16956;BMP180;8594;52.052;8.354;2023-12-20T12:23:53;100043.00;;;10.20
16956;BMP180;8594;52.052;8.354;2023-12-20T12:26:19;100039.00;;;9.60
16956;BMP180;8594;52.052;8.354;2023-12-20T12:28:46;100037.00;;;10.10
16956;BMP180;8594;52.052;8.354;2023-12-20T12:31:14;100032.00;;;10.00
16956;BMP180;8594;52.052;8.354;2023-12-20T12:33:42;100034.00;;;9.60
16956;BMP180;8594;52.052;8.354;2023-12-20T12:36:10;100029.00;;;9.70
16956;BMP180;8594;52.052;8.354;2023-12-20T12:38:41;100029.00;;;10.00
16956;BMP180;8594;52.052;8.354;2023-12-20T12:41:08;100028.00;;;10.10
16956;BMP180;8594;52.052;8.354;2023-12-20T12:43:36;100020.00;;;10.30
16956;BMP180;8594;52.052;8.354;2023-12-20T12:46:03;100029.00;;;10.60
16956;BMP180;8594;52.052;8.354;2023-12-20T12:48:30;100026.00;;;10.30
16956;BMP180;8594;52.052;8.354;2023-12-20T12:50:58;100021.00;;;10.20
16956;BMP180;8594;52.052;8.354;2023-12-20T12:53:26;100027.00;;;10.30
16956;BMP180;8594;52.052;8.354;2023-12-20T12:55:53;100025.00;;;10.20
16956;BMP180;8594;52.052;8.354;2023-12-20T12:58:20;100022.00;;;10.30
16956;BMP180;8594;52.052;8.354;2023-12-20T13:00:47;100027.00;;;10.50
16956;BMP180;8594;52.052;8.354;2023-12-20T13:03:14;100046.00;;;10.20
16956;BMP180;8594;52.052;8.354;2023-12-20T13:05:42;100051.00;;;10.10
16956;BMP180;8594;52.052;8.354;2023-12-20T13:08:08;100051.00;;;10.10
16956;BMP180;8594;52.052;8.354;2023-12-20T13:10:38;100043.00;;;9.70
16956;BMP180;8594;52.052;8.354;2023-12-20T13:13:05;100053.00;;;9.60
16956;BMP180;8594;52.052;8.354;2023-12-20T13:15:32;100054.00;;;10.00
16956;BMP180;8594;52.052;8.354;2023-12-20T13:17:59;100043.00;;;9.90
16956;BMP180;8594;52.052;8.354;2023-12-20T13:20:26;100039.00;;;9.50
16956;BMP180;8594;52.052;8.354;2023-12-20T13:22:53;100030.00;;;9.60
16956;BMP180;8594;52.052;8.354;2023-12-20T13:25:19;100021.00;;;9.30
16956;BMP180;8594;52.052;8.354;2023-12-20T13:27:47;100037.00;;;9.80
16956;BMP180;8594;52.052;8.354;2023-12-20T13:30:16;100032.00;;;9.60
16956;BMP180;8594;52.052;8.354;2023-12-20T13:32:44;100023.00;;;9.70
16956;BMP180;8594;52.052;8.354;2023-12-20T13:35:10;100033.00;;;9.40
16956;BMP180;8594;52.052;8.354;2023-12-20T13:37:39;100041.00;;;9.10
16956;BMP180;8594;52.052;8.354;2023-12-20T13:40:07;100038.00;;;9.50
16956;BMP180;8594;52.052;8.354;2023-12-20T13:42:34;100043.00;;;9.60
16956;BMP180;8594;52.052;8.354;2023-12-20T13:45:03;100047.00;;;9.80
16956;BMP180;8594;52.052;8.354;2023-12-20T13:47:30;100051.00;;;9.30
16956;BMP180;8594;52.052;8.354;2023-12-20T13:49:57;100039.00;;;9.20
16956;BMP180;8594;52.052;8.354;2023-12-20T13:52:24;100029.00;;;9.40
16956;BMP180;8594;52.052;8.354;2023-12-20T13:54:50;100024.00;;;9.70
16956;BMP180;8594;52.052;8.354;2023-12-20T13:57:17;100025.00;;;9.50
16956;BMP180;8594;52.052;8.354;2023-12-20T13:59:44;100028.00;;;9.40
16956;BMP180;8594;52.052;8.354;2023-12-20T14:02:12;100027.00;;;9.50
16956;BMP180;8594;52.052;8.354;2023-12-20T14:04:39;100027.00;;;9.80
16956;BMP180;8594;52.052;8.354;2023-12-20T14:07:06;100026.00;;;9.70
16956;BMP180;8594;52.052;8.354;2023-12-20T14:09:33;100015.00;;;9.40
16956;BMP180;8594;52.052;8.354;2023-12-20T14:12:00;100015.00;;;9.50
16956;BMP180;8594;52.052;8.354;2023-12-20T14:14:27;100028.00;;;10.00
16956;BMP180;8594;52.052;8.354;2023-12-20T14:16:53;100029.00;;;9.90